Time;durP1;ratioP1;P1;durP2;ratioP2;P2;SDS_P1;SDS_P2;PMS_P1;PMS_P2;Temp;Humidity;BMP_temperature;BMP_pressure;BME280_temperature;BME280_humidity;BME280_pressure;Samples;Min_cycle;Max_cycle;Signal;HPM_P1;HPM_P2
2022/05/30 00:01:44;;;;;;;2.10;1.90;;;;;;;;;;6216495;22;20466;-59
2022/05/30 00:04:10;;;;;;;2.47;1.70;;;;;;;;;;6238898;23;20432;-55
2022/05/30 00:06:39;;;;;;;3.93;2.57;;;;;;;;;;6218467;23;20843;-56
2022/05/30 00:09:13;;;;;;;2.23;1.97;;;;;;;;;;6232553;22;20381;-55
2022/05/30 00:11:39;;;;;;;5.00;2.10;;;;;;;;;;6234239;22;20410;-55
2022/05/30 00:14:09;;;;;;;2.20;2.00;;;;;;;;;;6240312;23;20441;-57
2022/05/30 00:17:07;;;;;;;2.47;2.07;;;;;;;;;;6239847;23;20378;-55
2022/05/30 00:19:38;;;;;;;5.83;2.97;;;;;;;;;;6227018;23;20393;-56
2022/05/30 00:22:14;;;;;;;2.30;1.90;;;;;;;;;;6200234;23;20410;-56
2022/05/30 00:24:45;;;;;;;2.53;2.00;;;;;;;;;;6232950;23;20382;-56
2022/05/30 00:27:11;;;;;;;5.17;2.30;;;;;;;;;;6234587;23;20708;-55
2022/05/30 00:30:08;;;;;;;7.80;2.63;;;;;;;;;;6242075;23;20373;-60
2022/05/30 00:32:47;;;;;;;2.30;1.87;;;;;;;;;;6223303;23;20492;-55
2022/05/30 00:35:28;;;;;;;2.13;1.80;;;;;;;;;;6230144;23;20468;-56
2022/05/30 00:38:00;;;;;;;2.10;1.90;;;;;;;;;;6236293;23;20382;-55
2022/05/30 00:40:31;;;;;;;2.60;1.93;;;;;;;;;;6219117;22;20797;-56
2022/05/30 00:42:57;;;;;;;4.07;2.10;;;;;;;;;;6240178;22;20433;-55
2022/05/30 00:45:24;;;;;;;3.50;2.20;;;;;;;;;;6232868;23;20385;-55
2022/05/30 00:47:54;;;;;;;4.93;2.70;;;;;;;;;;6264250;22;20384;-55
2022/05/30 00:50:20;;;;;;;6.80;2.30;;;;;;;;;;6227167;23;20909;-55
2022/05/30 00:52:46;;;;;;;3.07;2.20;;;;;;;;;;6211107;23;20471;-55
2022/05/30 00:55:13;;;;;;;2.33;1.97;;;;;;;;;;6219255;23;20521;-55
2022/05/30 00:57:40;;;;;;;2.87;1.93;;;;;;;;;;6240584;23;20378;-57
2022/05/30 01:00:20;;;;;;;5.27;2.00;;;;;;;;;;6231089;23;20748;-56
2022/05/30 01:06:30;;;;;;;3.30;1.87;;;;;;;;;;6215823;22;20374;-56
2022/05/30 01:08:17;;;;;;;5.23;1.73;;;;;;;;;;6219241;23;20757;-56
2022/05/30 01:10:44;;;;;;;2.23;2.03;;;;;;;;;;6238086;23;20367;-55
2022/05/30 01:13:10;;;;;;;2.37;2.07;;;;;;;;;;6216744;23;20736;-55
2022/05/30 01:15:37;;;;;;;3.13;2.77;;;;;;;;;;6239287;23;20433;-56
2022/05/30 01:18:17;;;;;;;3.27;2.23;;;;;;;;;;6225532;23;20389;-55
2022/05/30 01:21:00;;;;;;;3.23;2.80;;;;;;;;;;6238885;22;20427;-56
2022/05/30 01:23:31;;;;;;;3.60;1.90;;;;;;;;;;6206459;23;20409;-57
2022/05/30 01:26:18;;;;;;;2.50;2.20;;;;;;;;;;6238548;23;20736;-56
2022/05/30 01:29:01;;;;;;;2.63;2.03;;;;;;;;;;6231805;23;20465;-54
2022/05/30 01:31:28;;;;;;;3.30;2.30;;;;;;;;;;6236448;23;20613;-55
2022/05/30 01:34:01;;;;;;;3.67;2.20;;;;;;;;;;6222513;23;20545;-55
2022/05/30 01:36:30;;;;;;;2.83;2.07;;;;;;;;;;6235218;22;20371;-56
2022/05/30 01:38:56;;;;;;;2.50;1.87;;;;;;;;;;6218053;23;20514;-55
2022/05/30 01:41:22;;;;;;;2.73;2.40;;;;;;;;;;6236675;23;20884;-55
2022/05/30 01:43:48;;;;;;;2.63;1.80;;;;;;;;;;6222127;22;20912;-56
2022/05/30 01:46:18;;;;;;;4.13;2.13;;;;;;;;;;6238238;23;20386;-57
2022/05/30 01:48:45;;;;;;;2.40;2.20;;;;;;;;;;6216016;23;20772;-55
2022/05/30 01:51:16;;;;;;;5.10;2.47;;;;;;;;;;6207471;23;20762;-57
2022/05/30 01:54:05;;;;;;;2.73;2.20;;;;;;;;;;6237454;23;20425;-58
2022/05/30 01:56:35;;;;;;;3.13;2.20;;;;;;;;;;6237694;22;20404;-55
2022/05/30 01:59:02;;;;;;;2.93;2.57;;;;;;;;;;6231650;22;20370;-56
2022/05/30 02:01:28;;;;;;;3.23;2.13;;;;;;;;;;6238569;23;20852;-55
2022/05/30 02:04:01;;;;;;;4.20;2.37;;;;;;;;;;6232488;22;20544;-58
2022/05/30 02:06:35;;;;;;;2.90;2.60;;;;;;;;;;6235484;23;20387;-54
2022/05/30 02:09:24;;;;;;;5.77;2.90;;;;;;;;;;6230395;23;20390;-55
2022/05/30 02:11:55;;;;;;;2.80;2.47;;;;;;;;;;6238979;23;20375;-56
2022/05/30 02:14:23;;;;;;;5.10;3.10;;;;;;;;;;6221412;22;20422;-56
2022/05/30 02:17:01;;;;;;;5.17;2.37;;;;;;;;;;6242498;23;20374;-55
2022/05/30 02:19:28;;;;;;;3.97;2.40;;;;;;;;;;6232539;22;20408;-55
2022/05/30 02:21:54;;;;;;;2.97;2.70;;;;;;;;;;6238219;23;20375;-55
2022/05/30 02:24:21;;;;;;;3.60;3.30;;;;;;;;;;6221962;23;20430;-56
2022/05/30 02:26:47;;;;;;;5.43;3.17;;;;;;;;;;6241247;22;20366;-56
2022/05/30 02:29:14;;;;;;;3.80;3.03;;;;;;;;;;6225453;22;20680;-56
2022/05/30 02:31:41;;;;;;;3.67;2.70;;;;;;;;;;6238354;23;20678;-56
2022/05/30 02:36:54;;;;;;;3.87;3.33;;;;;;;;;;6240963;23;20393;-56
2022/05/30 02:39:20;;;;;;;3.33;2.90;;;;;;;;;;6224433;23;20461;-55
2022/05/30 02:41:47;;;;;;;3.20;2.90;;;;;;;;;;6241382;23;20374;-55
2022/05/30 02:44:13;;;;;;;3.63;2.53;;;;;;;;;;6222857;23;20453;-57
2022/05/30 02:46:39;;;;;;;4.07;2.63;;;;;;;;;;6242424;23;20766;-57
2022/05/30 02:49:05;;;;;;;3.70;2.90;;;;;;;;;;6236178;23;20387;-56
2022/05/30 02:51:32;;;;;;;3.13;2.70;;;;;;;;;;6238053;23;20367;-55
2022/05/30 02:53:57;;;;;;;2.83;2.30;;;;;;;;;;6220749;23;20947;-57
2022/05/30 02:56:24;;;;;;;4.23;2.77;;;;;;;;;;6239136;23;20377;-55
2022/05/30 02:59:02;;;;;;;2.57;2.33;;;;;;;;;;6230487;23;20925;-56
2022/05/30 03:01:31;;;;;;;5.27;3.10;;;;;;;;;;6238821;22;20392;-56
2022/05/30 03:03:57;;;;;;;5.23;3.30;;;;;;;;;;6221931;22;20366;-56
2022/05/30 03:06:23;;;;;;;4.47;3.77;;;;;;;;;;6239984;23;20661;-55
2022/05/30 03:08:50;;;;;;;4.60;3.63;;;;;;;;;;6218475;23;20919;-57
2022/05/30 03:11:16;;;;;;;5.33;3.13;;;;;;;;;;6239451;22;20415;-55
2022/05/30 03:13:44;;;;;;;4.20;3.33;;;;;;;;;;6231455;23;20426;-56
2022/05/30 03:16:14;;;;;;;3.67;3.37;;;;;;;;;;6237433;22;20394;-56
2022/05/30 03:18:41;;;;;;;4.13;3.00;;;;;;;;;;6232055;22;20719;-56
2022/05/30 03:21:14;;;;;;;3.40;3.00;;;;;;;;;;6236726;23;20424;-58
2022/05/30 03:23:40;;;;;;;4.03;3.50;;;;;;;;;;6219459;22;20467;-56
2022/05/30 03:26:06;;;;;;;3.57;3.00;;;;;;;;;;6237709;23;20841;-56
2022/05/30 03:28:33;;;;;;;3.17;2.50;;;;;;;;;;6211244;23;20474;-58
2022/05/30 03:31:03;;;;;;;3.40;2.47;;;;;;;;;;6235761;23;20366;-55
2022/05/30 03:33:45;;;;;;;8.50;3.00;;;;;;;;;;6236772;22;20460;-55
2022/05/30 03:36:22;;;;;;;4.27;2.93;;;;;;;;;;6235120;22;20446;-56
2022/05/30 03:38:48;;;;;;;3.30;3.00;;;;;;;;;;6189374;23;20818;-56
2022/05/30 03:41:18;;;;;;;4.23;2.87;;;;;;;;;;6236943;23;20371;-56
2022/05/30 03:44:00;;;;;;;6.40;2.93;;;;;;;;;;6234688;23;20889;-55
2022/05/30 03:46:28;;;;;;;7.80;3.30;;;;;;;;;;6238045;22;20441;-56
2022/05/30 03:48:58;;;;;;;4.03;2.60;;;;;;;;;;6216734;23;20374;-55
2022/05/30 03:51:25;;;;;;;4.27;3.07;;;;;;;;;;6230810;22;20401;-57
2022/05/30 03:53:52;;;;;;;2.83;2.57;;;;;;;;;;6234820;23;20913;-56
2022/05/30 03:56:21;;;;;;;4.03;2.93;;;;;;;;;;6231840;23;20441;-56
2022/05/30 03:58:53;;;;;;;2.87;2.60;;;;;;;;;;6239352;22;20389;-57
2022/05/30 04:01:25;;;;;;;3.63;2.30;;;;;;;;;;6225226;23;20382;-57
2022/05/30 04:06:54;;;;;;;4.97;2.80;;;;;;;;;;6213270;23;20411;-55
2022/05/30 04:09:32;;;;;;;5.13;2.70;;;;;;;;;;6232673;23;20379;-57
2022/05/30 04:12:00;;;;;;;3.30;3.00;;;;;;;;;;6237416;22;20364;-56
2022/05/30 04:17:31;;;;;;;3.20;2.90;;;;;;;;;;6233932;23;20463;-56
2022/05/30 04:19:57;;;;;;;3.20;2.43;;;;;;;;;;6234005;23;20379;-56
2022/05/30 04:22:23;;;;;;;2.57;2.30;;;;;;;;;;6238780;23;20445;-55
2022/05/30 04:25:17;;;;;;;4.73;2.77;;;;;;;;;;6236698;23;20777;-55
2022/05/30 04:27:51;;;;;;;6.03;3.13;;;;;;;;;;6239004;22;20742;-56
2022/05/30 04:30:17;;;;;;;2.60;2.40;;;;;;;;;;6220591;23;20383;-56
2022/05/30 04:32:43;;;;;;;5.87;3.47;;;;;;;;;;6214837;23;20390;-57
2022/05/30 04:35:12;;;;;;;3.80;3.50;;;;;;;;;;6228073;23;20457;-56
2022/05/30 04:37:58;;;;;;;4.40;2.90;;;;;;;;;;6217827;23;20378;-55
2022/05/30 04:40:30;;;;;;;4.50;2.83;;;;;;;;;;6241551;22;20466;-58
2022/05/30 04:42:58;;;;;;;4.53;3.13;;;;;;;;;;6232489;23;20497;-54
2022/05/30 04:45:24;;;;;;;3.40;2.77;;;;;;;;;;6242006;22;20377;-56
2022/05/30 04:48:05;;;;;;;3.90;2.80;;;;;;;;;;6233081;23;20877;-56
2022/05/30 04:50:36;;;;;;;3.70;2.80;;;;;;;;;;6238073;23;20389;-57
2022/05/30 04:53:03;;;;;;;4.10;2.93;;;;;;;;;;6220485;23;20598;-56
2022/05/30 04:55:29;;;;;;;6.30;3.10;;;;;;;;;;6238749;23;20425;-56
2022/05/30 04:57:55;;;;;;;3.57;3.07;;;;;;;;;;6222693;23;20385;-55
2022/05/30 05:00:28;;;;;;;4.13;3.23;;;;;;;;;;6239550;23;20370;-56
2022/05/30 05:02:54;;;;;;;3.00;2.70;;;;;;;;;;6219070;23;20479;-55
2022/05/30 05:05:24;;;;;;;3.60;2.77;;;;;;;;;;6235543;23;20374;-57
2022/05/30 05:10:48;;;;;;;3.50;2.90;;;;;;;;;;6240310;23;20371;-55
2022/05/30 05:13:14;;;;;;;2.90;2.70;;;;;;;;;;6219604;23;20450;-54
2022/05/30 05:15:40;;;;;;;3.23;2.90;;;;;;;;;;6214234;23;20521;-55
2022/05/30 05:18:06;;;;;;;4.30;3.43;;;;;;;;;;6234478;23;20488;-54
2022/05/30 05:20:44;;;;;;;7.23;3.27;;;;;;;;;;6212833;23;20401;-57
2022/05/30 05:23:11;;;;;;;5.10;3.70;;;;;;;;;;6218024;22;20497;-57
2022/05/30 05:25:41;;;;;;;5.17;4.37;;;;;;;;;;6237193;23;20389;-55
2022/05/30 05:28:11;;;;;;;5.03;3.80;;;;;;;;;;6219912;23;20386;-55
2022/05/30 05:30:41;;;;;;;5.70;4.20;;;;;;;;;;6218612;23;20363;-60
2022/05/30 05:33:12;;;;;;;4.73;4.00;;;;;;;;;;6213997;23;20389;-58
2022/05/30 05:35:43;;;;;;;4.10;3.60;;;;;;;;;;6208838;23;20444;-55
2022/05/30 05:38:15;;;;;;;4.57;3.60;;;;;;;;;;6215826;23;20854;-57
2022/05/30 05:40:43;;;;;;;4.03;3.50;;;;;;;;;;6238928;22;20375;-56
2022/05/30 05:43:13;;;;;;;6.17;4.63;;;;;;;;;;6213500;23;20630;-57
2022/05/30 05:45:40;;;;;;;4.50;4.10;;;;;;;;;;6239275;23;20389;-55
2022/05/30 05:48:10;;;;;;;7.77;5.13;;;;;;;;;;6227954;23;20421;-56
2022/05/30 05:51:06;;;;;;;5.53;4.90;;;;;;;;;;6238581;23;20992;-57
2022/05/30 05:53:34;;;;;;;6.40;4.87;;;;;;;;;;6244033;22;20394;-56
2022/05/30 05:56:53;;;;;;;8.37;4.40;;;;;;;;;;6239084;23;20390;-56
2022/05/30 05:59:03;;;;;;;8.30;4.57;;;;;;;;;;6208870;22;20414;-56
2022/05/30 06:04:40;;;;;;;6.83;4.20;;;;;;;;;;6244323;23;20397;-56
2022/05/30 06:07:16;;;;;;;5.23;3.83;;;;;;;;;;6238337;23;20402;-57
2022/05/30 06:09:45;;;;;;;4.23;3.80;;;;;;;;;;6243218;22;20796;-55
2022/05/30 06:12:37;;;;;;;5.17;4.47;;;;;;;;;;6238195;23;20389;-54
2022/05/30 06:15:07;;;;;;;5.13;3.63;;;;;;;;;;6239544;22;20430;-56
2022/05/30 06:17:33;;;;;;;10.10;4.60;;;;;;;;;;6212686;23;20416;-56
2022/05/30 06:20:00;;;;;;;4.80;4.30;;;;;;;;;;6239572;23;20379;-56
2022/05/30 06:22:26;;;;;;;4.10;3.70;;;;;;;;;;6220341;23;20370;-55
2022/05/30 06:24:54;;;;;;;5.17;4.60;;;;;;;;;;6234884;23;20402;-56
2022/05/30 06:27:58;;;;;;;4.93;4.37;;;;;;;;;;6238185;22;20378;-58
2022/05/30 06:30:26;;;;;;;5.87;4.67;;;;;;;;;;6214588;23;20378;-56
2022/05/30 06:35:57;;;;;;;5.23;3.70;;;;;;;;;;6229924;23;20388;-55
2022/05/30 06:38:23;;;;;;;5.00;3.73;;;;;;;;;;6180294;23;20409;-56
2022/05/30 06:40:49;;;;;;;4.13;3.83;;;;;;;;;;6231044;23;20485;-53
2022/05/30 06:46:39;;;;;;;4.40;4.00;;;;;;;;;;6226049;23;20480;-58
2022/05/30 06:49:20;;;;;;;13.73;4.50;;;;;;;;;;6205784;22;20683;-54
2022/05/30 06:51:47;;;;;;;4.30;3.50;;;;;;;;;;6226814;22;20509;-54
2022/05/30 06:54:24;;;;;;;5.03;4.60;;;;;;;;;;6225825;23;20516;-54
2022/05/30 06:59:40;;;;;;;6.17;3.70;;;;;;;;;;6213644;23;20418;-54
2022/05/30 07:02:07;;;;;;;3.53;3.03;;;;;;;;;;6220685;23;20409;-55
2022/05/30 07:04:33;;;;;;;5.00;2.67;;;;;;;;;;6218080;22;20798;-53
2022/05/30 07:07:09;;;;;;;4.60;3.60;;;;;;;;;;6225315;23;21027;-55
2022/05/30 07:09:38;;;;;;;2.67;2.47;;;;;;;;;;6221092;22;20648;-55
2022/05/30 07:12:06;;;;;;;4.47;2.70;;;;;;;;;;6222705;23;20457;-54
2022/05/30 07:14:32;;;;;;;2.70;2.30;;;;;;;;;;6204945;22;20433;-56
2022/05/30 07:17:07;;;;;;;6.20;2.80;;;;;;;;;;6227009;23;20880;-56
2022/05/30 07:19:33;;;;;;;4.77;3.13;;;;;;;;;;6204104;23;20904;-55
2022/05/30 07:22:00;;;;;;;4.10;2.67;;;;;;;;;;6229794;23;20381;-56
2022/05/30 07:24:26;;;;;;;2.90;2.57;;;;;;;;;;6213453;23;20370;-55
2022/05/30 07:26:52;;;;;;;3.90;3.60;;;;;;;;;;6228323;23;20866;-55
2022/05/30 07:32:25;;;;;;;6.50;3.03;;;;;;;;;;6211295;23;20621;-55
2022/05/30 07:34:51;;;;;;;4.47;3.80;;;;;;;;;;6224708;23;20985;-55
2022/05/30 07:37:17;;;;;;;4.00;3.60;;;;;;;;;;6229294;23;20552;-55
2022/05/30 07:39:43;;;;;;;4.47;3.17;;;;;;;;;;6229836;23;20500;-54
2022/05/30 07:42:18;;;;;;;5.90;3.80;;;;;;;;;;6232690;23;20371;-53
2022/05/30 07:44:45;;;;;;;3.60;3.30;;;;;;;;;;6208321;23;20389;-55
2022/05/30 07:47:30;;;;;;;3.43;2.93;;;;;;;;;;6230102;22;20378;-56
2022/05/30 07:50:02;;;;;;;4.60;3.80;;;;;;;;;;6241825;22;21104;-55
2022/05/30 07:52:29;;;;;;;4.53;4.00;;;;;;;;;;6229341;22;20378;-56
2022/05/30 07:54:55;;;;;;;4.33;3.93;;;;;;;;;;6211890;22;20461;-57
2022/05/30 07:57:50;;;;;;;4.67;3.37;;;;;;;;;;6229324;22;20388;-55
2022/05/30 08:00:08;;;;;;;5.33;2.90;;;;;;;;;;6218071;23;20379;-55
2022/05/30 08:02:35;;;;;;;7.13;2.50;;;;;;;;;;6223431;23;20469;-54
2022/05/30 08:05:04;;;;;;;4.03;2.73;;;;;;;;;;6207407;23;20861;-54
2022/05/30 08:07:33;;;;;;;3.77;3.37;;;;;;;;;;6222283;23;20398;-56
2022/05/30 08:10:26;;;;;;;9.73;3.43;;;;;;;;;;6217967;23;20385;-58
2022/05/30 08:13:00;;;;;;;4.77;3.27;;;;;;;;;;6222795;23;20452;-55
2022/05/30 08:15:33;;;;;;;4.43;2.60;;;;;;;;;;6225116;22;20808;-57
2022/05/30 08:18:00;;;;;;;6.03;2.73;;;;;;;;;;6225811;23;20398;-54
2022/05/30 08:20:31;;;;;;;4.40;2.73;;;;;;;;;;6217371;23;20375;-56
2022/05/30 08:23:00;;;;;;;4.90;2.37;;;;;;;;;;6228972;22;20881;-54
2022/05/30 08:25:27;;;;;;;6.13;2.77;;;;;;;;;;6228924;23;21515;-56
2022/05/30 08:27:53;;;;;;;4.70;2.57;;;;;;;;;;6216783;23;21278;-55
2022/05/30 08:30:20;;;;;;;4.97;1.90;;;;;;;;;;6231750;23;20447;-55
2022/05/30 08:32:46;;;;;;;4.80;2.60;;;;;;;;;;6211346;22;20393;-55
2022/05/30 08:35:14;;;;;;;3.63;2.43;;;;;;;;;;6225667;23;20878;-55
2022/05/30 08:37:40;;;;;;;2.73;1.93;;;;;;;;;;6206833;22;20765;-56
2022/05/30 08:42:53;;;;;;;4.90;1.60;;;;;;;;;;6221954;23;20392;-53
2022/05/30 08:45:30;;;;;;;3.40;2.20;;;;;;;;;;6228113;23;20928;-60
2022/05/30 08:47:59;;;;;;;2.87;2.40;;;;;;;;;;6207629;22;20393;-55
2022/05/30 08:50:39;;;;;;;3.30;2.60;;;;;;;;;;6226227;23;20884;-55
2022/05/30 08:53:18;;;;;;;3.53;2.30;;;;;;;;;;6207583;22;20370;-56
2022/05/30 08:55:45;;;;;;;2.80;1.87;;;;;;;;;;6225500;23;20430;-56
2022/05/30 08:58:11;;;;;;;3.67;2.13;;;;;;;;;;6218469;23;20375;-55
2022/05/30 09:00:52;;;;;;;2.43;1.73;;;;;;;;;;6227764;23;20367;-57
2022/05/30 09:03:21;;;;;;;2.83;2.53;;;;;;;;;;6181596;23;20390;-55
2022/05/30 09:05:51;;;;;;;3.27;1.87;;;;;;;;;;6224510;23;20884;-60
2022/05/30 09:08:33;;;;;;;2.70;1.27;;;;;;;;;;6211841;23;20385;-56
2022/05/30 09:11:06;;;;;;;2.57;1.80;;;;;;;;;;6226338;23;20817;-55
2022/05/30 09:13:37;;;;;;;2.47;1.50;;;;;;;;;;6225862;22;20409;-56
2022/05/30 09:16:04;;;;;;;2.20;1.80;;;;;;;;;;6229495;23;20387;-54
2022/05/30 09:18:47;;;;;;;3.20;1.07;;;;;;;;;;6218121;23;20370;-56
2022/05/30 09:21:16;;;;;;;2.30;1.63;;;;;;;;;;6234252;23;20458;-56
2022/05/30 09:24:03;;;;;;;1.80;1.10;;;;;;;;;;6209445;23;20418;-56
2022/05/30 09:26:54;;;;;;;2.40;1.10;;;;;;;;;;6229636;23;20727;-55
2022/05/30 09:29:32;;;;;;;3.70;1.60;;;;;;;;;;6214407;22;20738;-55
2022/05/30 09:32:27;;;;;;;4.13;1.50;;;;;;;;;;6229163;22;20425;-57
2022/05/30 09:35:25;;;;;;;4.50;1.60;;;;;;;;;;6218467;22;20434;-56
2022/05/30 09:40:55;;;;;;;3.20;1.50;;;;;;;;;;6230407;23;20477;-55
2022/05/30 09:43:31;;;;;;;2.00;1.80;;;;;;;;;;6223759;23;20920;-55
2022/05/30 09:46:23;;;;;;;2.03;1.77;;;;;;;;;;6226887;23;20877;-54
2022/05/30 09:49:01;;;;;;;3.30;1.20;;;;;;;;;;6205469;22;20845;-53
2022/05/30 09:51:53;;;;;;;4.97;1.47;;;;;;;;;;6230500;23;20618;-54
2022/05/30 09:54:47;;;;;;;4.47;1.60;;;;;;;;;;6201427;22;20437;-54
2022/05/30 09:57:13;;;;;;;2.00;1.37;;;;;;;;;;6230021;23;20406;-55
2022/05/30 10:00:00;;;;;;;3.40;1.70;;;;;;;;;;6225164;23;20413;-54
2022/05/30 10:02:57;;;;;;;2.00;1.50;;;;;;;;;;6252311;22;20413;-56
2022/05/30 10:05:29;;;;;;;2.53;1.63;;;;;;;;;;6223799;22;20386;-56
2022/05/30 10:08:06;;;;;;;2.40;1.60;;;;;;;;;;6231277;23;20406;-56
2022/05/30 10:13:39;;;;;;;3.37;1.10;;;;;;;;;;6204194;23;21036;-57
2022/05/30 10:16:13;;;;;;;2.33;1.33;;;;;;;;;;6230717;23;20742;-56
2022/05/30 10:18:51;;;;;;;1.60;1.20;;;;;;;;;;6222266;23;20959;-55
2022/05/30 10:21:29;;;;;;;1.50;1.10;;;;;;;;;;6229613;23;20386;-56
2022/05/30 10:30:27;;;;;;;1.80;1.50;;;;;;;;;;6204469;23;20479;-56
2022/05/30 10:32:56;;;;;;;2.63;1.60;;;;;;;;;;6228868;23;20381;-55
2022/05/30 10:35:23;;;;;;;2.60;2.10;;;;;;;;;;6221565;23;21091;-55
2022/05/30 10:38:05;;;;;;;3.73;1.80;;;;;;;;;;6226025;23;20470;-56
2022/05/30 10:40:37;;;;;;;6.30;1.83;;;;;;;;;;6217390;22;20389;-56
2022/05/30 10:43:09;;;;;;;3.00;1.73;;;;;;;;;;6219648;23;20435;-55
2022/05/30 10:45:57;;;;;;;3.63;1.40;;;;;;;;;;6204772;23;20374;-55
2022/05/30 10:48:25;;;;;;;1.80;1.50;;;;;;;;;;6201383;23;20542;-54
2022/05/30 10:51:14;;;;;;;3.67;2.00;;;;;;;;;;6221968;23;20660;-55
2022/05/30 10:53:55;;;;;;;2.17;1.63;;;;;;;;;;6223697;23;20478;-55
2022/05/30 10:56:27;;;;;;;2.90;1.33;;;;;;;;;;6200345;23;20429;-55
2022/05/30 10:59:03;;;;;;;1.93;1.60;;;;;;;;;;6219646;23;20377;-60
2022/05/30 11:01:34;;;;;;;2.23;1.00;;;;;;;;;;6207623;23;20444;-55
2022/05/30 11:04:10;;;;;;;3.00;1.37;;;;;;;;;;6219498;22;20394;-56
2022/05/30 11:06:37;;;;;;;2.70;1.30;;;;;;;;;;6217395;23;20436;-54
2022/05/30 11:09:04;;;;;;;3.87;2.00;;;;;;;;;;6223081;22;20363;-56
2022/05/30 11:11:32;;;;;;;4.03;1.50;;;;;;;;;;6201050;23;20418;-60
2022/05/30 11:14:03;;;;;;;1.43;1.20;;;;;;;;;;6222178;23;20742;-56
2022/05/30 11:16:45;;;;;;;1.77;1.20;;;;;;;;;;6218564;23;20912;-56
2022/05/30 11:19:27;;;;;;;3.03;1.17;;;;;;;;;;6196262;22;20500;-53
2022/05/30 11:21:54;;;;;;;3.23;1.60;;;;;;;;;;6221068;22;20858;-56
2022/05/30 11:24:20;;;;;;;2.90;1.93;;;;;;;;;;6233376;23;20502;-56
2022/05/30 11:27:05;;;;;;;3.57;1.70;;;;;;;;;;6230403;23;20377;-53
2022/05/30 11:29:50;;;;;;;1.70;1.40;;;;;;;;;;6219317;22;20374;-56
2022/05/30 11:32:25;;;;;;;1.50;1.20;;;;;;;;;;6212719;23;20892;-56
2022/05/30 11:34:57;;;;;;;2.43;1.50;;;;;;;;;;6230902;23;20873;-57
2022/05/30 11:37:23;;;;;;;2.23;1.77;;;;;;;;;;6216250;23;20371;-56
2022/05/30 11:39:54;;;;;;;4.37;1.83;;;;;;;;;;6224821;23;20466;-55
2022/05/30 11:42:20;;;;;;;2.10;1.70;;;;;;;;;;6200615;23;20390;-56
2022/05/30 11:45:02;;;;;;;2.33;1.50;;;;;;;;;;6227549;23;20503;-56
2022/05/30 11:47:28;;;;;;;2.10;1.90;;;;;;;;;;6203790;23;20374;-55
2022/05/30 11:50:16;;;;;;;3.20;1.60;;;;;;;;;;6221576;23;20381;-57
2022/05/30 11:53:06;;;;;;;4.60;2.23;;;;;;;;;;6196394;23;20457;-58
2022/05/30 11:55:45;;;;;;;5.67;1.80;;;;;;;;;;6221154;23;20881;-55
2022/05/30 11:58:30;;;;;;;3.33;2.23;;;;;;;;;;6205206;23;20883;-55
2022/05/30 12:01:12;;;;;;;3.80;2.17;;;;;;;;;;6193927;22;20371;-54
2022/05/30 12:06:43;;;;;;;3.10;1.67;;;;;;;;;;6203036;23;20883;-56
2022/05/30 12:09:15;;;;;;;2.53;1.60;;;;;;;;;;6203344;23;20375;-56
2022/05/30 12:12:00;;;;;;;4.00;1.20;;;;;;;;;;6216353;22;20374;-55
2022/05/30 12:14:36;;;;;;;2.63;1.73;;;;;;;;;;6214502;23;20716;-55
2022/05/30 12:17:04;;;;;;;3.83;1.67;;;;;;;;;;6214725;23;20489;-56
2022/05/30 12:25:46;;;;;;;3.00;1.60;;;;;;;;;;6228533;23;20660;-54
2022/05/30 12:28:28;;;;;;;2.83;1.77;;;;;;;;;;6206761;23;20382;-57
2022/05/30 12:31:28;;;;;;;1.90;1.20;;;;;;;;;;6224383;22;20382;-57
2022/05/30 12:34:09;;;;;;;2.97;1.50;;;;;;;;;;6225050;22;20382;-55
2022/05/30 12:36:49;;;;;;;3.73;2.10;;;;;;;;;;6218995;23;20652;-57
2022/05/30 12:39:35;;;;;;;2.30;1.60;;;;;;;;;;6230852;23;20397;-57
2022/05/30 12:42:07;;;;;;;3.30;1.80;;;;;;;;;;6228468;22;20452;-55
2022/05/30 12:44:58;;;;;;;2.80;1.87;;;;;;;;;;6234603;22;20367;-60
2022/05/30 12:47:29;;;;;;;3.57;2.07;;;;;;;;;;6209117;23;20779;-55
2022/05/30 12:50:21;;;;;;;3.13;2.07;;;;;;;;;;6232243;22;20378;-58
2022/05/30 12:52:56;;;;;;;3.87;2.10;;;;;;;;;;6211896;22;20465;-56
2022/05/30 12:55:33;;;;;;;2.20;1.90;;;;;;;;;;6229887;23;20434;-56
2022/05/30 12:58:11;;;;;;;2.77;1.63;;;;;;;;;;6207330;23;20380;-56
2022/05/30 13:00:41;;;;;;;3.47;1.50;;;;;;;;;;6233856;22;20377;-55
2022/05/30 13:03:25;;;;;;;5.23;2.07;;;;;;;;;;6212505;23;20927;-58
2022/05/30 13:06:12;;;;;;;2.97;2.00;;;;;;;;;;6230540;23;20386;-58
2022/05/30 13:08:48;;;;;;;2.33;1.63;;;;;;;;;;6228157;23;20929;-57
2022/05/30 13:14:36;;;;;;;3.43;1.80;;;;;;;;;;6205296;23;20527;-57
2022/05/30 13:20:16;;;;;;;3.27;2.20;;;;;;;;;;6210186;23;20380;-55
2022/05/30 13:22:52;;;;;;;4.80;2.03;;;;;;;;;;6208241;22;20731;-57
2022/05/30 13:25:23;;;;;;;2.60;1.90;;;;;;;;;;6232487;22;20378;-56
2022/05/30 13:27:55;;;;;;;2.13;1.80;;;;;;;;;;6182906;23;20481;-61
2022/05/30 13:30:26;;;;;;;4.50;1.90;;;;;;;;;;6231155;23;20386;-57
2022/05/30 13:32:54;;;;;;;2.20;1.60;;;;;;;;;;6227838;23;20712;-56
2022/05/30 13:35:22;;;;;;;2.77;1.70;;;;;;;;;;6232987;23;20433;-57
2022/05/30 13:37:59;;;;;;;3.60;1.77;;;;;;;;;;6194541;23;20829;-57
2022/05/30 13:40:26;;;;;;;4.20;1.70;;;;;;;;;;6224860;23;20400;-58
2022/05/30 13:45:57;;;;;;;4.20;1.70;;;;;;;;;;6214010;23;20373;-56
2022/05/30 13:48:24;;;;;;;2.33;1.50;;;;;;;;;;6214383;22;20416;-56
2022/05/30 13:50:50;;;;;;;3.70;1.77;;;;;;;;;;6232085;23;20398;-57
2022/05/30 13:53:18;;;;;;;2.90;2.10;;;;;;;;;;6207388;23;20390;-57
2022/05/30 13:55:51;;;;;;;2.77;1.60;;;;;;;;;;6229033;23;20429;-56
2022/05/30 13:58:17;;;;;;;3.63;1.60;;;;;;;;;;6208527;23;20789;-56
2022/05/30 14:00:43;;;;;;;3.80;1.43;;;;;;;;;;6229374;23;20425;-56
2022/05/30 14:03:10;;;;;;;3.10;1.40;;;;;;;;;;6187237;23;20549;-57
2022/05/30 14:05:41;;;;;;;3.50;2.10;;;;;;;;;;6233034;23;20377;-56
2022/05/30 14:08:13;;;;;;;2.93;1.40;;;;;;;;;;6221165;22;20378;-61
2022/05/30 14:10:44;;;;;;;2.50;1.53;;;;;;;;;;6229314;23;20363;-59
2022/05/30 14:13:38;;;;;;;3.27;2.40;;;;;;;;;;6192154;23;20657;-57
2022/05/30 14:16:06;;;;;;;3.83;2.27;;;;;;;;;;6225463;23;20525;-55
2022/05/30 14:18:44;;;;;;;3.10;1.97;;;;;;;;;;6208100;23;20997;-57
2022/05/30 14:21:12;;;;;;;2.97;1.93;;;;;;;;;;6225350;23;20378;-56
2022/05/30 14:23:39;;;;;;;3.03;1.60;;;;;;;;;;6222833;22;20404;-58
2022/05/30 14:26:09;;;;;;;3.27;1.60;;;;;;;;;;6229934;22;20795;-56
2022/05/30 14:28:58;;;;;;;2.40;1.70;;;;;;;;;;6224387;22;20393;-57
2022/05/30 14:31:24;;;;;;;2.73;1.63;;;;;;;;;;6226409;23;20880;-56
2022/05/30 14:34:00;;;;;;;3.77;1.90;;;;;;;;;;6219913;23;20366;-56
2022/05/30 14:36:42;;;;;;;2.70;2.07;;;;;;;;;;6228196;23;20951;-57
2022/05/30 14:39:20;;;;;;;2.13;1.57;;;;;;;;;;6220960;23;20394;-56
2022/05/30 14:41:58;;;;;;;1.97;1.60;;;;;;;;;;6227505;22;20391;-57
2022/05/30 14:44:28;;;;;;;3.70;1.70;;;;;;;;;;6203803;22;20417;-57
2022/05/30 14:46:54;;;;;;;2.10;1.77;;;;;;;;;;6225588;23;20385;-60
2022/05/30 14:49:24;;;;;;;4.00;1.70;;;;;;;;;;6208239;23;20446;-58
2022/05/30 14:52:02;;;;;;;2.23;1.50;;;;;;;;;;6223310;23;20374;-58
2022/05/30 14:54:47;;;;;;;3.50;1.97;;;;;;;;;;6198940;23;21090;-56
2022/05/30 14:57:14;;;;;;;3.00;1.60;;;;;;;;;;6221856;23;20485;-54
2022/05/30 14:59:41;;;;;;;3.90;2.13;;;;;;;;;;6215758;23;20374;-56
2022/05/30 15:02:08;;;;;;;3.17;1.90;;;;;;;;;;6219259;23;20577;-57
2022/05/30 15:04:34;;;;;;;2.77;1.80;;;;;;;;;;6184640;23;20362;-56
2022/05/30 15:07:18;;;;;;;1.87;1.67;;;;;;;;;;6222249;23;20724;-57
2022/05/30 15:09:49;;;;;;;3.10;2.00;;;;;;;;;;6205105;22;20401;-56
2022/05/30 15:12:26;;;;;;;4.27;1.90;;;;;;;;;;6231435;23;20370;-59
2022/05/30 15:14:54;;;;;;;3.10;1.87;;;;;;;;;;6202275;23;20433;-57
2022/05/30 15:17:20;;;;;;;3.10;1.93;;;;;;;;;;6223405;23;20389;-56
2022/05/30 15:20:00;;;;;;;2.53;1.70;;;;;;;;;;6223910;23;20714;-56
2022/05/30 15:22:42;;;;;;;2.80;1.87;;;;;;;;;;6225340;22;20738;-57
2022/05/30 15:25:44;;;;;;;2.13;1.50;;;;;;;;;;6225905;22;20382;-56
2022/05/30 15:28:15;;;;;;;3.30;1.70;;;;;;;;;;6221960;22;20987;-58
2022/05/30 15:30:50;;;;;;;1.90;1.60;;;;;;;;;;6211416;23;20412;-58
2022/05/30 15:33:26;;;;;;;2.43;1.63;;;;;;;;;;6226851;23;20381;-56
2022/05/30 15:36:18;;;;;;;2.63;2.00;;;;;;;;;;6226271;22;20519;-55
2022/05/30 15:38:47;;;;;;;2.03;1.80;;;;;;;;;;6225429;22;20416;-56
2022/05/30 15:41:15;;;;;;;2.80;2.20;;;;;;;;;;6208302;22;20525;-55
2022/05/30 15:43:44;;;;;;;2.57;1.80;;;;;;;;;;6228055;22;20381;-56
2022/05/30 15:46:12;;;;;;;4.43;1.70;;;;;;;;;;6177610;23;21287;-56
2022/05/30 15:48:39;;;;;;;2.30;1.70;;;;;;;;;;6194531;23;20420;-56
2022/05/30 15:51:12;;;;;;;3.70;2.20;;;;;;;;;;6218850;23;20434;-56
2022/05/30 15:59:28;;;;;;;1.50;1.20;;;;;;;;;;6229168;23;20393;-57
2022/05/30 16:01:58;;;;;;;1.67;1.40;;;;;;;;;;6212608;23;20504;-57
2022/05/30 16:04:27;;;;;;;2.10;1.73;;;;;;;;;;6227310;22;20389;-56
2022/05/30 16:06:53;;;;;;;2.00;1.40;;;;;;;;;;6208601;23;20382;-57
2022/05/30 16:09:21;;;;;;;2.07;1.50;;;;;;;;;;6228403;23;20374;-56
2022/05/30 16:11:48;;;;;;;5.67;2.27;;;;;;;;;;6213791;23;20378;-56
2022/05/30 16:14:14;;;;;;;3.03;2.60;;;;;;;;;;6228580;23;20873;-56
2022/05/30 16:16:40;;;;;;;2.67;2.10;;;;;;;;;;6216701;23;20413;-55
2022/05/30 16:19:07;;;;;;;2.53;1.50;;;;;;;;;;6229772;23;20484;-55
2022/05/30 16:21:34;;;;;;;3.90;1.93;;;;;;;;;;6206376;22;20377;-56
2022/05/30 16:24:08;;;;;;;2.97;1.90;;;;;;;;;;6229610;23;20993;-56
2022/05/30 16:26:35;;;;;;;4.23;1.97;;;;;;;;;;6173450;23;20387;-56